Airfield :
LOGIN :

Register | Disclaimer

   EN    FR    IT 

 










Legend :    VFR   Marginal VFR   IFR   Intensive IFR   Very Intensive IFR
Visi :
Ceiling :
>= 8 km
>= 3000ft
5 to 8 km
1000 to 3000 ft
1500m to 5 km
500 to 1000 ft
800 to 1500m
200 to 500 ft
< 800m
< 200 ft
Symbols :   Thunderstorms  Fog  Heavy snow  Heavy precipitations  Wind > 20 kt
SIGMETs :     Misc.  Thunderstorms  Icing  Turbulence  Mountain Waves  Volcanic Ashes






- Airport Elevation : 1300 ft
- IATA code : LIG


LFBL - Limoges

CURRENT METAR :
  • 101300Z AUTO 13006KT CAVOK 05/03 Q1026 NOSIG

EXPIRED METARs :
  • 101230Z AUTO 14005KT 110V170 CAVOK 04/03 Q1027 NOSIG
  • 101200Z AUTO 12005KT 090V150 9999 FEW005 04/03 Q1027 NOSIG
  • 101130Z AUTO 10004KT 070V150 6000 BKN002 03/03 Q1028 BECMG NSC
  • 101100Z AUTO 12005KT 1600 0450 R21/2500D R03/2300D BCFG BKN002 02/02 Q1028 BECMG CAVOK
  • 101030Z AUTO 09003KT 060V140 0600 0550 R21/1600U R03/0700D FG VV/// 02/02 Q1028 BECMG CAVOK

TAF TAF LFBL
Valid from the 10 at 12:00 until the 11 at 12:00 UTC


101100Z 1012/1112 15007KT CAVOK
BECMG 1022/1024 BKN030 BKN040
TEMPO 1100/1102 5000 -RA OVC020
BECMG 1102/1104 4000 RA OVC005
ATIS : +33 5 55 48 40 37



MET'MAP, your aeronautical weather chart ! - Copyright ORBIFLY December 2007 - Disclaimer

ORBIFLY MET'MAP TEAM :

Programming & Development : Alexandra Zaïnal
Concept & original design : Baudouin d'Aumeries
Assistance for programming : Marc-Olivier Méhu
Technical & hardware support : Manuel Goepfert

Contact : metmap@orbifly.com




SOURCES & CREDITS :

   NOAA